createdAt,value
2019-04-28T00:00:01.485Z,100136.16
2019-04-28T00:03:05.327Z,100135.91
2019-04-28T00:06:11.093Z,100143.27
2019-04-28T00:09:21.361Z,100148.98
2019-04-28T00:12:24.684Z,100150.27
2019-04-28T00:15:38.814Z,100153.04
2019-04-28T00:18:44.073Z,100151.12
2019-04-28T00:21:49.215Z,100154.67
2019-04-28T00:25:03.370Z,100156.36
2019-04-28T00:28:06.875Z,100158.81
2019-04-28T00:31:11.330Z,100146.48
2019-04-28T00:34:17.627Z,100154.11
2019-04-28T00:37:25.729Z,100153.33
2019-04-28T00:40:29.242Z,100162.73
2019-04-28T00:43:35.805Z,100161.98
2019-04-28T00:46:43.306Z,100162.30
2019-04-28T00:49:48.371Z,100162.19
2019-04-28T00:52:51.939Z,100159.80
2019-04-28T00:55:55.451Z,100166.73
2019-04-28T00:58:59.293Z,100174.69
2019-04-28T01:02:02.097Z,100169.03
2019-04-28T01:05:07.700Z,100170.62
2019-04-28T01:08:11.282Z,100166.23
2019-04-28T01:11:15.149Z,100171.69
2019-04-28T01:14:18.673Z,100172.18
2019-04-28T01:17:26.862Z,100170.19
2019-04-28T01:20:30.386Z,100164.59
2019-04-28T01:23:33.891Z,100165.27
2019-04-28T01:26:39.206Z,100153.23
2019-04-28T01:29:42.629Z,100163.88
2019-04-28T01:32:59.783Z,100166.22
2019-04-28T01:36:03.469Z,100168.89
2019-04-28T01:39:06.964Z,100172.36
2019-04-28T01:42:10.725Z,100178.16
2019-04-28T01:45:14.373Z,100170.78
2019-04-28T01:48:19.770Z,100172.25
2019-04-28T01:51:23.172Z,100172.17
2019-04-28T01:54:27.780Z,100178.32
2019-04-28T01:57:31.319Z,100182.36
2019-04-28T02:00:34.935Z,100177.27
2019-04-28T02:03:40.310Z,100183.25
2019-04-28T02:06:43.874Z,100186.77
2019-04-28T02:09:49.060Z,100191.90
2019-04-28T02:12:52.838Z,100191.90
2019-04-28T02:15:56.364Z,100192.69
2019-04-28T02:18:59.896Z,100196.40
2019-04-28T02:22:07.690Z,100191.46
2019-04-28T02:25:11.468Z,100198.94
2019-04-28T02:28:14.982Z,100191.50
2019-04-28T02:31:24.123Z,100186.95
2019-04-28T02:34:23.765Z,100189.42
2019-04-28T02:37:27.288Z,100197.09
2019-04-28T02:40:30.811Z,100195.39
2019-04-28T02:43:34.403Z,100200.63
2019-04-28T02:46:40.605Z,100198.16
2019-04-28T02:49:45.154Z,100201.44
2019-04-28T02:53:06.559Z,100200.91
2019-04-28T02:56:11.236Z,100197.92
2019-04-28T02:59:15.055Z,100201.00
2019-04-28T03:02:20.807Z,100199.92
2019-04-28T03:05:24.086Z,100200.54
2019-04-28T03:08:30.634Z,100203.89
2019-04-28T03:11:33.732Z,100199.95
2019-04-28T03:14:37.317Z,100196.31
2019-04-28T03:17:41.107Z,100203.56
2019-04-28T03:20:44.961Z,100200.88
2019-04-28T03:23:48.491Z,100201.73
2019-04-28T03:27:00.628Z,100203.84
2019-04-28T03:30:24.285Z,100197.91
2019-04-28T03:33:34.378Z,100195.17
2019-04-28T03:36:34.891Z,100203.37
2019-04-28T03:39:40.540Z,100213.84
2019-04-28T03:42:43.723Z,100217.54
2019-04-28T03:45:50.346Z,100226.16
2019-04-28T03:48:53.896Z,100230.70
2019-04-28T03:51:57.445Z,100231.22
2019-04-28T03:55:01.039Z,100233.63
2019-04-28T03:58:04.635Z,100237.17
2019-04-28T04:01:10.770Z,100245.98
2019-04-28T04:04:13.400Z,100242.63
2019-04-28T04:07:16.917Z,100244.70
2019-04-28T04:10:26.352Z,100252.28
2019-04-28T04:13:41.566Z,100255.83
2019-04-28T04:17:00.149Z,100256.20
2019-04-28T04:20:05.172Z,100256.16
2019-04-28T04:23:11.280Z,100249.20
2019-04-28T04:26:13.958Z,100248.70
2019-04-28T04:29:17.473Z,100238.22
2019-04-28T04:32:26.750Z,100233.97
2019-04-28T04:35:26.265Z,100236.17
2019-04-28T04:38:31.171Z,100253.32
2019-04-28T04:41:35.162Z,100249.86
2019-04-28T04:44:41.397Z,100256.73
2019-04-28T04:47:43.929Z,100262.45
2019-04-28T04:50:47.506Z,100258.45
2019-04-28T04:53:51.734Z,100265.02
2019-04-28T04:56:55.413Z,100247.13
2019-04-28T05:00:00.086Z,100281.06
2019-04-28T05:03:11.085Z,100284.68
2019-04-28T05:06:32.908Z,100290.75
2019-04-28T05:09:36.447Z,100300.23
2019-04-28T05:12:40.467Z,100306.26
2019-04-28T05:15:44.067Z,100311.61
2019-04-28T05:18:49.868Z,100311.24
2019-04-28T05:21:53.047Z,100315.67
2019-04-28T05:25:00.783Z,100326.97
2019-04-28T05:28:04.803Z,100327.39
2019-04-28T05:31:13.539Z,100333.34
2019-04-28T05:34:13.573Z,100337.70
2019-04-28T05:37:17.137Z,100341.27
2019-04-28T05:40:20.681Z,100339.92
2019-04-28T05:43:24.234Z,100345.27
2019-04-28T05:46:27.814Z,100353.02
2019-04-28T05:49:39.726Z,100361.84
2019-04-28T05:52:57.104Z,100352.18
2019-04-28T05:56:02.312Z,100353.54
2019-04-28T05:59:13.407Z,100350.38
2019-04-28T06:02:24.287Z,100349.35
2019-04-28T06:05:27.891Z,100359.25
2019-04-28T06:08:35.799Z,100363.95
2019-04-28T06:11:41.090Z,100363.06
2019-04-28T06:14:44.703Z,100358.25
2019-04-28T06:17:49.841Z,100363.84
2019-04-28T06:20:53.428Z,100350.27
2019-04-28T06:23:57.088Z,100342.02
2019-04-28T06:27:00.597Z,100352.45
2019-04-28T06:30:05.848Z,100350.82
2019-04-28T06:33:09.348Z,100350.56
2019-04-28T06:36:12.873Z,100354.97
2019-04-28T06:39:16.384Z,100338.90
2019-04-28T06:42:19.898Z,100353.15
2019-04-28T06:45:23.452Z,100370.27
2019-04-28T06:48:27.099Z,100374.69
2019-04-28T06:51:30.640Z,100376.64
2019-04-28T06:54:34.219Z,100385.64
2019-04-28T06:57:37.895Z,100394.55
2019-04-28T07:00:41.577Z,100395.38
2019-04-28T07:03:45.482Z,100392.38
2019-04-28T07:06:49.045Z,100397.36
2019-04-28T07:09:52.627Z,100399.87
2019-04-28T07:12:56.213Z,100408.64
2019-04-28T07:15:59.739Z,100418.98
2019-04-28T07:19:03.248Z,100427.18
2019-04-28T07:22:08.443Z,100430.89
2019-04-28T07:25:21.752Z,100419.70
2019-04-28T07:28:25.325Z,100427.23
2019-04-28T07:31:28.855Z,100433.13
2019-04-28T07:34:32.499Z,100437.05
2019-04-28T07:37:36.046Z,100439.08
2019-04-28T07:40:39.710Z,100438.80
2019-04-28T07:43:43.238Z,100446.34
2019-04-28T07:46:46.786Z,100446.40
2019-04-28T07:49:50.276Z,100449.69
2019-04-28T07:53:04.057Z,100456.91
2019-04-28T07:56:07.733Z,100461.36
2019-04-28T07:59:11.331Z,100472.95
2019-04-28T08:02:14.971Z,100480.83
2019-04-28T08:05:18.476Z,100475.23
2019-04-28T08:08:21.995Z,100481.53
2019-04-28T08:11:25.674Z,100487.45
2019-04-28T08:14:29.195Z,100491.00
2019-04-28T08:17:32.760Z,100492.87
2019-04-28T08:20:36.224Z,100489.95
2019-04-28T08:23:47.060Z,100495.72
2019-04-28T08:26:45.019Z,100504.23
2019-04-28T08:29:58.024Z,100503.72
2019-04-28T08:33:01.336Z,100509.62
2019-04-28T08:36:05.034Z,100509.41
2019-04-28T08:39:08.627Z,100515.45
2019-04-28T08:42:12.153Z,100520.89
2019-04-28T08:45:16.284Z,100516.25
2019-04-28T08:48:19.771Z,100516.50
2019-04-28T08:51:23.350Z,100514.67
2019-04-28T08:54:26.909Z,100514.77
2019-04-28T08:57:30.425Z,100510.27
2019-04-28T09:00:33.939Z,100505.91
2019-04-28T09:03:37.477Z,100507.34
2019-04-28T09:06:40.985Z,100517.20
2019-04-28T09:09:44.645Z,100521.56
2019-04-28T09:12:51.083Z,100520.70
2019-04-28T09:15:56.970Z,100525.02
2019-04-28T09:19:02.214Z,100530.81
2019-04-28T09:22:10.589Z,100525.84
2019-04-28T09:25:11.428Z,100521.30
2019-04-28T09:28:16.577Z,100529.94
2019-04-28T09:31:20.415Z,100539.13
2019-04-28T09:34:28.465Z,100527.41
2019-04-28T09:37:33.419Z,100527.47
2019-04-28T09:40:36.349Z,100536.05
2019-04-28T09:43:57.790Z,100524.73
2019-04-28T09:47:03.273Z,100534.41
2019-04-28T09:50:12.726Z,100525.84
2019-04-28T09:53:16.287Z,100518.44
2019-04-28T09:56:19.876Z,100512.80
2019-04-28T09:59:24.911Z,100516.74
2019-04-28T10:02:30.232Z,100517.70
2019-04-28T10:05:36.741Z,100511.91
2019-04-28T10:08:41.982Z,100504.07
2019-04-28T10:11:45.644Z,100503.66
2019-04-28T10:14:52.110Z,100498.02
2019-04-28T10:17:55.787Z,100507.80
2019-04-28T10:20:59.390Z,100496.52
2019-04-28T10:24:04.732Z,100489.59
2019-04-28T10:27:11.546Z,100497.49
2019-04-28T10:30:15.403Z,100498.28
2019-04-28T10:33:19.023Z,100507.05
2019-04-28T10:36:23.086Z,100510.10
2019-04-28T10:39:28.258Z,100503.55
2019-04-28T10:42:31.779Z,100505.70
2019-04-28T10:45:48.743Z,100508.41
2019-04-28T10:48:52.245Z,100508.63
2019-04-28T10:51:59.656Z,100520.66
2019-04-28T10:55:01.303Z,100522.35
2019-04-28T10:58:04.979Z,100517.83
2019-04-28T11:01:10.434Z,100523.48
2019-04-28T11:04:18.523Z,100519.94
2019-04-28T11:07:24.971Z,100521.06
2019-04-28T11:10:31.303Z,100514.96
2019-04-28T11:13:34.807Z,100509.66
2019-04-28T11:16:41.150Z,100510.38
2019-04-28T11:19:44.822Z,100513.63
2019-04-28T11:22:48.567Z,100509.66
2019-04-28T11:25:52.284Z,100508.92
2019-04-28T11:28:59.060Z,100515.07
2019-04-28T11:32:03.694Z,100511.33
2019-04-28T11:35:22.640Z,100505.73
2019-04-28T11:38:31.601Z,100513.91
2019-04-28T11:41:35.199Z,100506.16
2019-04-28T11:44:41.941Z,100504.42
2019-04-28T11:47:45.770Z,100511.26
2019-04-28T11:50:51.092Z,100510.23
2019-04-28T11:53:54.688Z,100515.72
2019-04-28T11:56:58.224Z,100513.92
2019-04-28T12:00:03.584Z,100505.05
2019-04-28T12:03:07.835Z,100500.03
2019-04-28T12:06:11.640Z,100487.80
2019-04-28T12:09:28.576Z,100486.03
2019-04-28T12:12:37.443Z,100480.93
2019-04-28T12:15:42.620Z,100502.36
2019-04-28T12:18:53.652Z,100492.97
2019-04-28T12:21:57.374Z,100490.48
2019-04-28T12:25:02.326Z,100487.97
2019-04-28T12:28:05.950Z,100489.83
2019-04-28T12:31:15.310Z,100493.59
2019-04-28T12:34:23.725Z,100482.70
2019-04-28T12:37:27.322Z,100480.07
2019-04-28T12:40:30.942Z,100484.28
2019-04-28T12:43:34.620Z,100487.45
2019-04-28T12:46:42.539Z,100489.59
2019-04-28T12:49:59.556Z,100500.57
2019-04-28T12:53:05.953Z,100497.68
2019-04-28T12:56:09.729Z,100502.92
2019-04-28T12:59:17.143Z,100498.74
2019-04-28T13:02:31.516Z,100498.74
2019-04-28T13:05:36.773Z,100510.38
2019-04-28T13:08:40.369Z,100509.84
2019-04-28T13:11:43.985Z,100507.23
2019-04-28T13:14:47.589Z,100502.45
2019-04-28T13:17:51.202Z,100504.89
2019-04-28T13:20:54.730Z,100504.19
2019-04-28T13:23:58.281Z,100506.66
2019-04-28T13:27:01.887Z,100497.95
2019-04-28T13:30:07.113Z,100496.75
2019-04-28T13:33:10.615Z,100499.94
2019-04-28T13:36:15.334Z,100496.98
2019-04-28T13:39:20.638Z,100501.28
2019-04-28T13:42:24.170Z,100494.36
2019-04-28T13:45:28.935Z,100491.22
2019-04-28T13:48:32.437Z,100493.48
2019-04-28T13:51:36.410Z,100492.52
2019-04-28T13:54:39.954Z,100487.46
2019-04-28T13:57:43.581Z,100480.16
2019-04-28T14:00:51.863Z,100474.41
2019-04-28T14:04:02.865Z,100469.05
2019-04-28T14:07:07.344Z,100462.48
2019-04-28T14:10:11.053Z,100470.93
2019-04-28T14:13:14.657Z,100473.05
2019-04-28T14:16:18.241Z,100468.22
2019-04-28T14:19:21.870Z,100483.91
2019-04-28T14:22:25.470Z,100481.09
2019-04-28T14:25:28.982Z,100480.31
2019-04-28T14:28:32.519Z,100479.24
2019-04-28T14:31:36.082Z,100483.52
2019-04-28T14:34:39.623Z,100485.91
2019-04-28T14:37:43.196Z,100473.45
2019-04-28T14:40:46.673Z,100475.53
2019-04-28T14:43:50.234Z,100480.72
2019-04-28T14:46:53.788Z,100479.60
2019-04-28T14:49:57.366Z,100485.41
2019-04-28T14:53:00.864Z,100491.30
2019-04-28T14:56:07.236Z,100494.33
2019-04-28T14:59:09.740Z,100498.29
2019-04-28T15:02:17.777Z,100494.25
2019-04-28T15:05:25.709Z,100496.46
2019-04-28T15:08:39.986Z,100494.08
2019-04-28T15:11:45.143Z,100489.65
2019-04-28T15:14:48.703Z,100487.75
2019-04-28T15:17:52.226Z,100489.34
2019-04-28T15:20:55.888Z,100493.22
2019-04-28T15:23:59.447Z,100496.77
2019-04-28T15:27:02.966Z,100496.12
2019-04-28T15:30:09.775Z,100503.34
2019-04-28T15:33:13.310Z,100500.72
2019-04-28T15:36:16.892Z,100497.66
2019-04-28T15:39:20.428Z,100502.22
2019-04-28T15:42:23.950Z,100504.08
2019-04-28T15:45:27.777Z,100501.06
2019-04-28T15:48:31.384Z,100506.10
2019-04-28T15:51:34.986Z,100504.45
2019-04-28T15:54:38.552Z,100498.77
2019-04-28T15:57:42.158Z,100502.95
2019-04-28T16:00:45.695Z,100506.15
2019-04-28T16:03:49.242Z,100507.11
2019-04-28T16:06:53.070Z,100503.23
2019-04-28T16:09:56.584Z,100506.53
2019-04-28T16:13:00.183Z,100504.92
2019-04-28T16:16:03.889Z,100499.78
2019-04-28T16:19:07.490Z,100506.10
2019-04-28T16:22:11.028Z,100505.22
2019-04-28T16:25:14.657Z,100507.70
2019-04-28T16:28:18.259Z,100511.80
2019-04-28T16:31:22.139Z,100507.05
2019-04-28T16:34:25.954Z,100511.00
2019-04-28T16:37:38.691Z,100507.34
2019-04-28T16:40:39.346Z,100509.03
2019-04-28T16:43:43.420Z,100511.72
2019-04-28T16:46:47.185Z,100517.91
2019-04-28T16:49:51.628Z,100517.05
2019-04-28T16:52:55.118Z,100520.36
2019-04-28T16:56:03.278Z,100523.72
2019-04-28T16:59:08.514Z,100529.23
2019-04-28T17:02:16.511Z,100528.92
2019-04-28T17:05:20.184Z,100527.16
2019-04-28T17:08:23.723Z,100533.47
2019-04-28T17:11:27.233Z,100534.02
2019-04-28T17:14:30.776Z,100540.73
2019-04-28T17:17:34.308Z,100542.97
2019-04-28T17:20:37.912Z,100542.74
2019-04-28T17:23:41.435Z,100546.00
2019-04-28T17:26:45.098Z,100544.77
2019-04-28T17:29:51.098Z,100554.75
2019-04-28T17:32:54.006Z,100551.16
2019-04-28T17:35:57.597Z,100554.01
2019-04-28T17:39:01.270Z,100549.25
2019-04-28T17:42:05.024Z,100552.23
2019-04-28T17:45:09.417Z,100547.84
2019-04-28T17:48:14.666Z,100557.95
2019-04-28T17:51:18.270Z,100558.78
2019-04-28T17:54:21.844Z,100562.26
2019-04-28T17:57:25.526Z,100558.14
2019-04-28T18:00:39.537Z,100568.94
2019-04-28T18:03:53.691Z,100568.80
2019-04-28T18:07:15.848Z,100576.75
2019-04-28T18:10:20.153Z,100578.43
2019-04-28T18:13:23.677Z,100581.86
2019-04-28T18:16:45.080Z,100586.27
2019-04-28T18:19:48.694Z,100589.53
2019-04-28T18:22:52.220Z,100597.59
2019-04-28T18:25:55.766Z,100604.62
2019-04-28T18:28:59.412Z,100606.16
2019-04-28T18:32:07.249Z,100604.80
2019-04-28T18:35:15.417Z,100614.92
2019-04-28T18:38:34.316Z,100616.09
2019-04-28T18:41:46.650Z,100621.38
2019-04-28T18:44:50.189Z,100617.44
2019-04-28T18:47:53.733Z,100623.00
2019-04-28T18:50:57.398Z,100625.98
2019-04-28T18:54:00.950Z,100629.59
2019-04-28T18:57:04.597Z,100634.47
2019-04-28T19:00:08.732Z,100639.47
2019-04-28T19:03:12.271Z,100640.25
2019-04-28T19:06:16.045Z,100649.68
2019-04-28T19:09:37.152Z,100648.51
2019-04-28T19:12:42.601Z,100660.59
2019-04-28T19:15:56.804Z,100660.14
2019-04-28T19:19:11.095Z,100664.89
2019-04-28T19:22:14.733Z,100669.66
2019-04-28T19:25:18.272Z,100676.75
2019-04-28T19:28:22.055Z,100678.50
2019-04-28T19:31:25.732Z,100677.71
2019-04-28T19:34:29.370Z,100678.23
2019-04-28T19:37:33.078Z,100675.05
2019-04-28T19:40:36.602Z,100679.03
2019-04-28T19:43:40.187Z,100683.61
2019-04-28T19:46:43.820Z,100685.16
2019-04-28T19:49:47.395Z,100685.09
2019-04-28T19:52:51.040Z,100679.45
2019-04-28T19:56:12.202Z,100688.34
2019-04-28T19:59:17.414Z,100692.79
2019-04-28T20:02:21.036Z,100694.56
2019-04-28T20:05:24.773Z,100692.41
2019-04-28T20:08:28.404Z,100697.84
2019-04-28T20:11:31.991Z,100696.18
2019-04-28T20:14:35.532Z,100697.20
2019-04-28T20:17:40.244Z,100695.66
2019-04-28T20:20:43.856Z,100697.09
2019-04-28T20:23:47.706Z,100700.08
2019-04-28T20:26:51.300Z,100695.23
2019-04-28T20:29:54.850Z,100707.16
2019-04-28T20:33:07.018Z,100709.55
2019-04-28T20:36:05.441Z,100708.44
2019-04-28T20:39:13.767Z,100707.77
2019-04-28T20:42:35.400Z,100705.92
2019-04-28T20:45:39.038Z,100706.94
2019-04-28T20:48:42.639Z,100703.04
2019-04-28T20:51:46.250Z,100699.80
2019-04-28T20:54:49.788Z,100704.34
2019-04-28T20:57:53.394Z,100701.90
2019-04-28T21:00:56.956Z,100704.16
2019-04-28T21:04:00.516Z,100705.48
2019-04-28T21:07:04.242Z,100712.31
2019-04-28T21:10:07.967Z,100709.27
2019-04-28T21:13:11.712Z,100713.02
2019-04-28T21:16:15.327Z,100717.44
2019-04-28T21:19:18.866Z,100714.19
2019-04-28T21:22:22.394Z,100708.80
2019-04-28T21:25:26.036Z,100707.19
2019-04-28T21:28:29.570Z,100707.00
2019-04-28T21:31:33.218Z,100701.74
2019-04-28T21:34:36.821Z,100703.99
2019-04-28T21:37:40.364Z,100704.20
2019-04-28T21:40:44.322Z,100704.17
2019-04-28T21:43:52.628Z,100707.34
2019-04-28T21:47:00.852Z,100713.52
2019-04-28T21:50:05.883Z,100711.08
2019-04-28T21:53:09.367Z,100713.22
2019-04-28T21:56:12.991Z,100716.08
2019-04-28T21:59:16.538Z,100725.02
2019-04-28T22:02:20.263Z,100720.59
2019-04-28T22:05:30.120Z,100715.63
2019-04-28T22:08:29.075Z,100720.43
2019-04-28T22:11:32.782Z,100716.29
2019-04-28T22:14:36.306Z,100724.56
2019-04-28T22:17:39.838Z,100726.90
2019-04-28T22:20:43.406Z,100720.93
2019-04-28T22:23:54.015Z,100729.41
2019-04-28T22:26:57.556Z,100730.99
2019-04-28T22:30:01.088Z,100731.36
2019-04-28T22:33:04.729Z,100733.44
2019-04-28T22:36:08.477Z,100734.14
2019-04-28T22:39:12.715Z,100735.67
2019-04-28T22:42:16.306Z,100733.48
2019-04-28T22:45:20.154Z,100738.81
2019-04-28T22:48:25.583Z,100743.48
2019-04-28T22:51:29.134Z,100747.56
2019-04-28T22:54:36.732Z,100753.77
2019-04-28T22:57:41.992Z,100749.02
2019-04-28T23:00:52.777Z,100756.48
2019-04-28T23:03:58.084Z,100751.92
2019-04-28T23:07:01.785Z,100753.16
2019-04-28T23:10:07.252Z,100758.06
2019-04-28T23:13:10.819Z,100757.92
2019-04-28T23:16:14.336Z,100762.70
2019-04-28T23:19:19.632Z,100754.56
2019-04-28T23:22:30.634Z,100767.65
2019-04-28T23:25:34.266Z,100761.17
2019-04-28T23:28:37.928Z,100758.00
2019-04-28T23:31:41.657Z,100761.88
2019-04-28T23:34:45.186Z,100765.42
2019-04-28T23:37:48.716Z,100769.10
2019-04-28T23:40:53.930Z,100760.11
2019-04-28T23:43:57.511Z,100759.07
2019-04-28T23:47:02.264Z,100755.52
2019-04-28T23:50:08.496Z,100752.45
2019-04-28T23:53:13.729Z,100757.61
2019-04-28T23:56:17.317Z,100756.13
2019-04-28T23:59:21.342Z,100763.30
